FLIGHT INFORMATION
United Airlines

UAL1794

At Arrival Gate

KIAD
 KMSY
DATE: 2019-12-30
GATE: D29A
GATE DEPARTURE: 13:32
TAKEOFF: 13:43
DATE: 2019-12-30
GATE:  -
LANDING: 16:11
GATE ARRIVAL: 16:18
FLIGHT DATA
Crew: MICHAEL ROTH
Speed: 474 kts Altitude: 36000 ft
Stage Length: 829 nm
Route: 
Block Time: 2.7 Flight Time: 2.5
Fuel Used: 15534 LB
TRACK DATA
50000 FT1000 KTAltitudeSpeed
AIRCRAFT INFORMATION
Aircraft Type: B739BW
Registration: N79402
SELCAL:  MSN/LN: 30119 / 857
Operator: UNITED AIRLINES
Flights: 21 Block Time: 71.5 Flight Time: 64.3
Fuel Used: 396787 LB
  • DEPARTURE INFORMATION
    Date: 2019-12-30
    Airport: KIAD
    Gate: D29A
    Gate Departure: 13:32
    Takeoff: 13:43
    ARRIVAL INFORMATION
    Date: 2019-12-30
    Airport: KMSY
    Gate:  -
    Landing: 16:11
    Gate Arrival: 16:18
  • FLIGHT DATA
    Crew: MICHAEL ROTH
    Speed: 474 kts Altitude: 36000 ft
    Stage Length: 448 nm
    Route: 
    Block Time: 2.7 Flight Time: 2.5
    Fuel Used: 15534 LB
  • AIRCRAFT INFORMATION
    Aircraft Type: B739BW
    Registration: N79402
    SELCAL:  MSN/LN: 30119 / 857
    Operator: United Airlines
    Flights: 21 Block Time: 71.5 Flight Time: 64.3
    Fuel Used: 396787 LB

DATALINK LOG | Newest first | Current as of: 2020-05-26 10:38:17
LABEL ID SEQUENCE CONTENT Dn/Up
QC125416:11▼ Dn
2U5308KMSY 302053Z 36006KT 10SM FEW250 17/02 A3004 RMK AO2 SLP175 T01720022 56020▲ Up
2S5308KMSY▼ Dn
QB444313:43▼ Dn
QA320113:32 22.7▼ Dn
A35211CLEARED TO KMSY VIA CLTCH2 MAULS Q40 NIOLA MEI RYTHM4. SQUAWK 3670.▲ Up
A35119CLEARED TO KMSY VIA CLTCH2 MAULS Q40 NIOLA MEI RYTHM4. SQUAWK 5337.▲ Up
2U1829KIAD 301752Z 00000KT 10SM FEW009 SCT060 BKN075 BKN130 14/12 A2959 RMK AO2 RAB1654E40 SLP020 P0001 60013 T01390117 10139 20089 58▲ Up
2S1829KIAD▼ Dn
Q05009[LINK ACK]▲ Up
Q01726[LINK TEST]▼ Dn


AIRCRAFT HISTORY
FLIGHT DATE FLIGHT NUMBER ORIGIN DESTINATION ROUTE BLOCK TIME FLIGHT TIME FUEL USED (LB) PILOT
2020-05-15UAL519KTUL KORD 1.71.49519Steven Perry
2020-05-11UAL519KDEN KTUL 1.91.18798Steven Perry
2020-05-09UAL519KEWR KDEN 4.23.825854Steven Perry
2020-03-08UAL519MMUN KEWR 3.63.420449Steven Perry
2020-03-08UAL519KIAH MMUN 21.811103Steven Perry
2020-03-03UAL1968KSLC KIAH 2.92.515881Pete Locascio
2020-02-27UAL5833CYYZ KSLC 6.35.924187Pete Locascio
2020-02-25UAL6847MMPR CYYZ 2.82.124337Pete Locascio
2020-02-21UAL6820KGPI MMPR 4.54.124926Pete Locascio
2020-02-19UAL6890MMUN KGPI 6.66.332153Pete Locascio
2020-02-12UAL1119KDEN MMUN 4.23.922724Pete Locascio
2020-02-08UAL5880PAKT KDEN 3.53.218813Pete Locascio
2020-02-06UAL8128KIDA PAKT 3.53.118784Pete Locascio
2020-01-24UAL6120KIAH KIDA 3.53.120388Pete Locascio
2020-01-22UAL2158KSLC KIAH 2.92.515905Pete Locascio
2020-01-11UAL6825KMSY KSLC 3.73.320549Pete Locascio
2020-01-09UAL1754KIAH KMSY 1.10.75904Dan Downs
2019-12-31UAL724KMSY KIAH 1.316810Michael Roth
2019-12-30UAL1794KIAD KMSY 2.72.515534Michael Roth
2019-12-29UAL419KSEA KIAD 4.84.528803Michael Roth
2019-11-13UAL2050KIAH KSEA 4.64.225367Pete Locascio